sensor_id;sensor_type;location;lat;lon;timestamp;pressure;altitude;pressure_sealevel;temperature;humidity
47670;BME280;33408;52.062;11.722;2023-04-20T00:01:23;101621.63;;;5.25;100.00
47670;BME280;33408;52.062;11.722;2023-04-20T00:03:49;101628.38;;;5.20;100.00
47670;BME280;33408;52.062;11.722;2023-04-20T00:06:17;101627.53;;;5.21;100.00
47670;BME280;33408;52.062;11.722;2023-04-20T00:08:45;101627.53;;;5.19;100.00
47670;BME280;33408;52.062;11.722;2023-04-20T00:11:12;101622.47;;;5.24;100.00
47670;BME280;33408;52.062;11.722;2023-04-20T00:13:39;101621.53;;;5.19;100.00
47670;BME280;33408;52.062;11.722;2023-04-20T00:16:05;101620.81;;;5.27;100.00
47670;BME280;33408;52.062;11.722;2023-04-20T00:18:32;101616.53;;;5.26;100.00
47670;BME280;33408;52.062;11.722;2023-04-20T00:20:59;101614.88;;;5.32;100.00
47670;BME280;33408;52.062;11.722;2023-04-20T00:23:27;101619.94;;;5.27;100.00
47670;BME280;33408;52.062;11.722;2023-04-20T00:25:53;101614.78;;;5.25;100.00
47670;BME280;33408;52.062;11.722;2023-04-20T00:28:20;101605.28;;;5.21;100.00
47670;BME280;33408;52.062;11.722;2023-04-20T00:30:46;101614.72;;;5.22;100.00
47670;BME280;33408;52.062;11.722;2023-04-20T00:33:13;101611.47;;;5.33;100.00
47670;BME280;33408;52.062;11.722;2023-04-20T00:35:39;101605.25;;;5.20;100.00
47670;BME280;33408;52.062;11.722;2023-04-20T00:38:06;101594.44;;;5.38;100.00
47670;BME280;33408;52.062;11.722;2023-04-20T00:40:34;101595.34;;;5.41;100.00
47670;BME280;33408;52.062;11.722;2023-04-20T00:43:08;101583.19;;;5.33;100.00
47670;BME280;33408;52.062;11.722;2023-04-20T00:45:35;101597.75;;;5.32;100.00
47670;BME280;33408;52.062;11.722;2023-04-20T00:48:02;101600.19;;;5.24;100.00
47670;BME280;33408;52.062;11.722;2023-04-20T00:50:29;101599.28;;;5.21;100.00
47670;BME280;33408;52.062;11.722;2023-04-20T00:52:56;101594.31;;;5.30;100.00
47670;BME280;33408;52.062;11.722;2023-04-20T00:55:22;101594.47;;;5.41;100.00
47670;BME280;33408;52.062;11.722;2023-04-20T00:57:51;101584.84;;;5.29;100.00
47670;BME280;33408;52.062;11.722;2023-04-20T01:00:18;101589.88;;;5.23;100.00
47670;BME280;33408;52.062;11.722;2023-04-20T01:02:44;101580.56;;;5.29;100.00
47670;BME280;33408;52.062;11.722;2023-04-20T01:05:11;101595.97;;;5.26;100.00
47670;BME280;33408;52.062;11.722;2023-04-20T01:07:38;101595.13;;;5.29;100.00
47670;BME280;33408;52.062;11.722;2023-04-20T01:10:06;101599.38;;;5.27;100.00
47670;BME280;33408;52.062;11.722;2023-04-20T01:12:33;101594.44;;;5.38;100.00
47670;BME280;33408;52.062;11.722;2023-04-20T01:15:01;101585.00;;;5.38;100.00
47670;BME280;33408;52.062;11.722;2023-04-20T01:17:28;101596.09;;;5.36;100.00
47670;BME280;33408;52.062;11.722;2023-04-20T01:19:54;101589.25;;;5.35;100.00
47670;BME280;33408;52.062;11.722;2023-04-20T01:22:22;101588.16;;;5.22;100.00
47670;BME280;33408;52.062;11.722;2023-04-20T01:24:49;101588.34;;;5.34;100.00
47670;BME280;33408;52.062;11.722;2023-04-20T01:27:15;101588.41;;;5.37;100.00
47670;BME280;33408;52.062;11.722;2023-04-20T01:29:42;101584.91;;;5.32;100.00
47670;BME280;33408;52.062;11.722;2023-04-20T01:32:09;101577.28;;;5.38;100.00
47670;BME280;33408;52.062;11.722;2023-04-20T01:34:36;101572.22;;;5.43;100.00
47670;BME280;33408;52.062;11.722;2023-04-20T01:37:03;101576.53;;;5.45;100.00
47670;BME280;33408;52.062;11.722;2023-04-20T01:39:34;101567.72;;;5.31;100.00
47670;BME280;33408;52.062;11.722;2023-04-20T01:42:00;101571.28;;;5.39;100.00
47670;BME280;33408;52.062;11.722;2023-04-20T01:44:27;101564.53;;;5.44;100.00
47670;BME280;33408;52.062;11.722;2023-04-20T01:46:53;101557.69;;;5.45;100.00
47670;BME280;33408;52.062;11.722;2023-04-20T01:49:20;101559.41;;;5.44;100.00
47670;BME280;33408;52.062;11.722;2023-04-20T01:51:47;101556.81;;;5.43;100.00
47670;BME280;33408;52.062;11.722;2023-04-20T01:54:13;101561.19;;;5.50;100.00
47670;BME280;33408;52.062;11.722;2023-04-20T01:56:41;101556.66;;;5.35;100.00
47670;BME280;33408;52.062;11.722;2023-04-20T01:59:08;101562.06;;;5.51;100.00
47670;BME280;33408;52.062;11.722;2023-04-20T02:01:34;101553.31;;;5.38;100.00
47670;BME280;33408;52.062;11.722;2023-04-20T02:04:01;101556.91;;;5.49;100.00
47670;BME280;33408;52.062;11.722;2023-04-20T02:06:27;101562.81;;;5.45;100.00
47670;BME280;33408;52.062;11.722;2023-04-20T02:08:54;101561.91;;;5.40;100.00
47670;BME280;33408;52.062;11.722;2023-04-20T02:11:21;101561.97;;;5.44;100.00
47670;BME280;33408;52.062;11.722;2023-04-20T02:13:48;101559.41;;;5.44;100.00
47670;BME280;33408;52.062;11.722;2023-04-20T02:16:16;101557.59;;;5.40;100.00
47670;BME280;33408;52.062;11.722;2023-04-20T02:18:43;101556.72;;;5.38;100.00
47670;BME280;33408;52.062;11.722;2023-04-20T02:21:12;101562.75;;;5.40;100.00
47670;BME280;33408;52.062;11.722;2023-04-20T02:23:39;101563.59;;;5.38;100.00
47670;BME280;33408;52.062;11.722;2023-04-20T02:26:06;101556.75;;;5.40;100.00
47670;BME280;33408;52.062;11.722;2023-04-20T02:28:33;101570.50;;;5.43;100.00
47670;BME280;33408;52.062;11.722;2023-04-20T02:31:01;101562.81;;;5.45;100.00
47670;BME280;33408;52.062;11.722;2023-04-20T02:33:28;101560.28;;;5.46;100.00
47670;BME280;33408;52.062;11.722;2023-04-20T02:35:55;101560.28;;;5.46;100.00
47670;BME280;33408;52.062;11.722;2023-04-20T02:38:21;101552.44;;;5.39;100.00
47670;BME280;33408;52.062;11.722;2023-04-20T02:40:48;101560.19;;;5.40;100.00
47670;BME280;33408;52.062;11.722;2023-04-20T02:43:14;101561.91;;;5.40;100.00
47670;BME280;33408;52.062;11.722;2023-04-20T02:45:41;101556.69;;;5.37;100.00
47670;BME280;33408;52.062;11.722;2023-04-20T02:48:09;101560.94;;;5.33;100.00
47670;BME280;33408;52.062;11.722;2023-04-20T02:50:36;101563.56;;;5.39;100.00
47670;BME280;33408;52.062;11.722;2023-04-20T02:53:02;101557.41;;;5.26;100.00
47670;BME280;33408;52.062;11.722;2023-04-20T02:55:29;101561.78;;;5.34;100.00
47670;BME280;33408;52.062;11.722;2023-04-20T02:57:56;101557.50;;;5.34;100.00
47670;BME280;33408;52.062;11.722;2023-04-20T03:00:22;101561.81;;;5.35;100.00
47670;BME280;33408;52.062;11.722;2023-04-20T03:02:49;101560.97;;;5.35;100.00
47670;BME280;33408;52.062;11.722;2023-04-20T03:05:17;101560.88;;;5.30;100.00
47670;BME280;33408;52.062;11.722;2023-04-20T03:07:44;101552.38;;;5.36;100.00
47670;BME280;33408;52.062;11.722;2023-04-20T03:10:11;101556.66;;;5.34;100.00
47670;BME280;33408;52.062;11.722;2023-04-20T03:12:38;101558.38;;;5.35;100.00
47670;BME280;33408;52.062;11.722;2023-04-20T03:15:05;101567.94;;;5.43;100.00
47670;BME280;33408;52.062;11.722;2023-04-20T03:17:32;101569.56;;;5.38;100.00
47670;BME280;33408;52.062;11.722;2023-04-20T03:19:58;101573.03;;;5.40;100.00
47670;BME280;33408;52.062;11.722;2023-04-20T03:22:26;101569.69;;;5.44;100.00
47670;BME280;33408;52.062;11.722;2023-04-20T03:24:53;101571.34;;;5.42;100.00
47670;BME280;33408;52.062;11.722;2023-04-20T03:27:20;101569.84;;;5.55;100.00
47670;BME280;33408;52.062;11.722;2023-04-20T03:29:46;101570.63;;;5.51;100.00
47670;BME280;33408;52.062;11.722;2023-04-20T03:32:13;101576.56;;;5.47;100.00
47670;BME280;33408;52.062;11.722;2023-04-20T03:34:39;101580.94;;;5.51;100.00
47670;BME280;33408;52.062;11.722;2023-04-20T03:37:06;101586.91;;;5.50;100.00
47670;BME280;33408;52.062;11.722;2023-04-20T03:39:34;101588.69;;;5.54;100.00
47670;BME280;33408;52.062;11.722;2023-04-20T03:42:01;101587.78;;;5.52;100.00
47670;BME280;33408;52.062;11.722;2023-04-20T03:44:27;101580.91;;;5.50;100.00
47670;BME280;33408;52.062;11.722;2023-04-20T03:46:54;101580.94;;;5.51;100.00
47670;BME280;33408;52.062;11.722;2023-04-20T03:49:23;101583.31;;;5.40;100.00
47670;BME280;33408;52.062;11.722;2023-04-20T03:51:50;101576.53;;;5.45;100.00
47670;BME280;33408;52.062;11.722;2023-04-20T03:54:16;101580.91;;;5.50;100.00
47670;BME280;33408;52.062;11.722;2023-04-20T03:56:44;101582.34;;;5.34;100.00
47670;BME280;33408;52.062;11.722;2023-04-20T03:59:11;101576.47;;;5.41;100.00
47670;BME280;33408;52.062;11.722;2023-04-20T04:01:37;101578.16;;;5.40;100.00
47670;BME280;33408;52.062;11.722;2023-04-20T04:04:04;101584.09;;;5.35;100.00
47670;BME280;33408;52.062;11.722;2023-04-20T04:06:31;101580.59;;;5.31;100.00
47670;BME280;33408;52.062;11.722;2023-04-20T04:08:57;101578.00;;;5.31;100.00
47670;BME280;33408;52.062;11.722;2023-04-20T04:11:24;101579.66;;;5.27;100.00
47670;BME280;33408;52.062;11.722;2023-04-20T04:13:56;101580.44;;;5.22;100.00
47670;BME280;33408;52.062;11.722;2023-04-20T04:16:23;101591.53;;;5.19;100.00
47670;BME280;33408;52.062;11.722;2023-04-20T04:18:50;101590.72;;;5.22;100.00
47670;BME280;33408;52.062;11.722;2023-04-20T04:21:16;101586.59;;;5.30;100.00
47670;BME280;33408;52.062;11.722;2023-04-20T04:23:43;101587.28;;;5.21;100.00
47670;BME280;33408;52.062;11.722;2023-04-20T04:26:09;101588.06;;;5.16;100.00
47670;BME280;33408;52.062;11.722;2023-04-20T04:28:37;101583.91;;;5.24;100.00
47670;BME280;33408;52.062;11.722;2023-04-20T04:31:06;101591.44;;;5.15;100.00
47670;BME280;33408;52.062;11.722;2023-04-20T04:33:33;101598.38;;;5.19;100.00
47670;BME280;33408;52.062;11.722;2023-04-20T04:36:00;101587.38;;;5.27;100.00
47670;BME280;33408;52.062;11.722;2023-04-20T04:38:27;101590.97;;;5.37;100.00
47670;BME280;33408;52.062;11.722;2023-04-20T04:40:53;101593.56;;;5.37;100.00
47670;BME280;33408;52.062;11.722;2023-04-20T04:43:20;101593.56;;;5.37;100.00
47670;BME280;33408;52.062;11.722;2023-04-20T04:45:48;101590.31;;;5.47;100.00
47670;BME280;33408;52.062;11.722;2023-04-20T04:48:16;101591.00;;;5.39;100.00
47670;BME280;33408;52.062;11.722;2023-04-20T04:50:43;101590.16;;;5.38;100.00
47670;BME280;33408;52.062;11.722;2023-04-20T04:53:10;101588.28;;;5.31;100.00
47670;BME280;33408;52.062;11.722;2023-04-20T04:55:36;101595.00;;;5.23;100.00
47670;BME280;33408;52.062;11.722;2023-04-20T04:58:03;101594.88;;;5.15;100.00
47670;BME280;33408;52.062;11.722;2023-04-20T05:00:29;101600.06;;;5.18;100.00
47670;BME280;33408;52.062;11.722;2023-04-20T05:02:56;101603.69;;;5.29;100.00
47670;BME280;33408;52.062;11.722;2023-04-20T05:05:24;101606.91;;;5.16;100.00
47670;BME280;33408;52.062;11.722;2023-04-20T05:07:51;101603.44;;;5.14;100.00
47670;BME280;33408;52.062;11.722;2023-04-20T05:10:18;101608.38;;;5.03;100.00
47670;BME280;33408;52.062;11.722;2023-04-20T05:12:44;101605.16;;;5.14;100.00
47670;BME280;33408;52.062;11.722;2023-04-20T05:15:11;101611.81;;;5.04;100.00
47670;BME280;33408;52.062;11.722;2023-04-20T05:17:38;101615.03;;;4.92;100.00
47670;BME280;33408;52.062;11.722;2023-04-20T05:20:06;101621.03;;;4.94;100.00
47670;BME280;33408;52.062;11.722;2023-04-20T05:22:36;101621.91;;;4.93;100.00
47670;BME280;33408;52.062;11.722;2023-04-20T05:25:03;101626.28;;;4.99;100.00
47670;BME280;33408;52.062;11.722;2023-04-20T05:27:31;101630.56;;;4.98;100.00
47670;BME280;33408;52.062;11.722;2023-04-20T05:29:58;101633.50;;;5.20;100.00
47670;BME280;33408;52.062;11.722;2023-04-20T05:32:25;101631.19;;;5.34;100.00
47670;BME280;33408;52.062;11.722;2023-04-20T05:34:51;101627.91;;;5.42;100.00
47670;BME280;33408;52.062;11.722;2023-04-20T05:37:18;101631.59;;;5.57;100.00
47670;BME280;33408;52.062;11.722;2023-04-20T05:39:46;101631.09;;;5.79;100.00
47670;BME280;33408;52.062;11.722;2023-04-20T05:42:12;101638.41;;;6.07;100.00
47670;BME280;33408;52.062;11.722;2023-04-20T05:44:39;101635.53;;;5.88;100.00
47670;BME280;33408;52.062;11.722;2023-04-20T05:47:07;101632.31;;;6.00;100.00
47670;BME280;33408;52.062;11.722;2023-04-20T05:49:34;101644.47;;;6.10;100.00
47670;BME280;33408;52.062;11.722;2023-04-20T05:52:00;101639.31;;;6.09;100.00
47670;BME280;33408;52.062;11.722;2023-04-20T05:54:28;101641.69;;;5.96;100.00
47670;BME280;33408;52.062;11.722;2023-04-20T05:56:57;101631.72;;;6.19;100.00
47670;BME280;33408;52.062;11.722;2023-04-20T05:59:25;101645.25;;;6.69;100.00
47670;BME280;33408;52.062;11.722;2023-04-20T06:01:51;101643.41;;;6.59;100.00
47670;BME280;33408;52.062;11.722;2023-04-20T06:04:18;101634.88;;;6.63;100.00
47670;BME280;33408;52.062;11.722;2023-04-20T06:06:45;101643.16;;;7.10;100.00
47670;BME280;33408;52.062;11.722;2023-04-20T06:09:11;101643.63;;;7.63;100.00
47670;BME280;33408;52.062;11.722;2023-04-20T06:11:38;101640.63;;;8.19;100.00
47670;BME280;33408;52.062;11.722;2023-04-20T06:14:06;101627.75;;;7.17;100.00
47670;BME280;33408;52.062;11.722;2023-04-20T06:16:36;101630.22;;;7.07;100.00
47670;BME280;33408;52.062;11.722;2023-04-20T06:19:02;101632.88;;;7.15;100.00
47670;BME280;33408;52.062;11.722;2023-04-20T06:21:29;101634.41;;;6.98;100.00
47670;BME280;33408;52.062;11.722;2023-04-20T06:23:56;101638.59;;;6.86;100.00
47670;BME280;33408;52.062;11.722;2023-04-20T06:26:22;101641.31;;;6.97;100.00
47670;BME280;33408;52.062;11.722;2023-04-20T06:28:49;101646.94;;;7.48;100.00
47670;BME280;33408;52.062;11.722;2023-04-20T06:31:18;101640.84;;;7.40;100.00
47670;BME280;33408;52.062;11.722;2023-04-20T06:33:45;101647.81;;;7.50;100.00
47670;BME280;33408;52.062;11.722;2023-04-20T06:36:12;101638.94;;;8.28;100.00
47670;BME280;33408;52.062;11.722;2023-04-20T06:38:39;101638.22;;;8.50;100.00
47670;BME280;33408;52.062;11.722;2023-04-20T06:41:05;101631.19;;;8.35;100.00
47670;BME280;33408;52.062;11.722;2023-04-20T06:43:32;101630.19;;;8.07;100.00
47670;BME280;33408;52.062;11.722;2023-04-20T06:45:59;101632.91;;;8.30;100.00
47670;BME280;33408;52.062;11.722;2023-04-20T06:48:27;101650.53;;;7.64;100.00
47670;BME280;33408;52.062;11.722;2023-04-20T06:50:53;101648.19;;;7.98;100.00
47670;BME280;33408;52.062;11.722;2023-04-20T06:53:20;101648.34;;;8.16;100.00
47670;BME280;33408;52.062;11.722;2023-04-20T06:55:46;101648.75;;;9.03;100.00
47670;BME280;33408;52.062;11.722;2023-04-20T06:58:13;101652.75;;;8.33;100.00
47670;BME280;33408;52.062;11.722;2023-04-20T07:00:39;101642.84;;;7.69;100.00
47670;BME280;33408;52.062;11.722;2023-04-20T07:03:06;101651.56;;;7.86;100.00
47670;BME280;33408;52.062;11.722;2023-04-20T07:05:34;101651.34;;;7.57;100.00
47670;BME280;33408;52.062;11.722;2023-04-20T07:08:01;101643.63;;;7.63;100.00
47670;BME280;33408;52.062;11.722;2023-04-20T07:10:28;101645.59;;;7.95;100.00
47670;BME280;33408;52.062;11.722;2023-04-20T07:12:54;101642.88;;;7.73;100.00
47670;BME280;33408;52.062;11.722;2023-04-20T07:15:21;101652.56;;;8.03;100.00
47670;BME280;33408;52.062;11.722;2023-04-20T07:17:48;101641.53;;;8.28;100.00
47670;BME280;33408;52.062;11.722;2023-04-20T07:20:14;101638.22;;;8.52;100.00
47670;BME280;33408;52.062;11.722;2023-04-20T07:22:42;101641.53;;;8.29;100.00
47670;BME280;33408;52.062;11.722;2023-04-20T07:25:09;101638.19;;;8.44;100.00
47670;BME280;33408;52.062;11.722;2023-04-20T07:27:36;101640.84;;;8.64;100.00
47670;BME280;33408;52.062;11.722;2023-04-20T07:30:04;101632.94;;;8.36;100.00
47670;BME280;33408;52.062;11.722;2023-04-20T07:32:31;101632.94;;;8.38;100.00
47670;BME280;33408;52.062;11.722;2023-04-20T07:34:58;101629.31;;;8.02;100.00
47670;BME280;33408;52.062;11.722;2023-04-20T07:37:24;101642.31;;;8.19;100.00
47670;BME280;33408;52.062;11.722;2023-04-20T07:39:52;101649.75;;;7.74;100.00
47670;BME280;33408;52.062;11.722;2023-04-20T07:42:19;101649.06;;;7.98;100.00
47670;BME280;33408;52.062;11.722;2023-04-20T07:44:46;101648.31;;;8.12;100.00
47670;BME280;33408;52.062;11.722;2023-04-20T07:47:13;101645.84;;;8.35;100.00
47670;BME280;33408;52.062;11.722;2023-04-20T07:49:40;101649.13;;;8.09;100.00
47670;BME280;33408;52.062;11.722;2023-04-20T07:52:06;101654.28;;;8.04;100.00
47670;BME280;33408;52.062;11.722;2023-04-20T07:54:33;101647.66;;;8.47;100.00
47670;BME280;33408;52.062;11.722;2023-04-20T07:57:01;101660.53;;;8.39;100.00
47670;BME280;33408;52.062;11.722;2023-04-20T07:59:28;101664.81;;;8.37;100.00
47670;BME280;33408;52.062;11.722;2023-04-20T08:01:57;101656.22;;;8.38;100.00
47670;BME280;33408;52.062;11.722;2023-04-20T08:04:24;101662.16;;;8.23;100.00
47670;BME280;33408;52.062;11.722;2023-04-20T08:06:51;101665.81;;;8.56;100.00
47670;BME280;33408;52.062;11.722;2023-04-20T08:09:17;101661.28;;;8.26;100.00
47670;BME280;33408;52.062;11.722;2023-04-20T08:11:44;101659.81;;;8.60;100.00
47670;BME280;33408;52.062;11.722;2023-04-20T08:14:12;101662.44;;;8.74;100.00
47670;BME280;33408;52.062;11.722;2023-04-20T08:16:41;101646.88;;;8.60;100.00
47670;BME280;33408;52.062;11.722;2023-04-20T08:19:08;101653.75;;;8.53;100.00
47670;BME280;33408;52.062;11.722;2023-04-20T08:21:35;101656.00;;;8.02;100.00
47670;BME280;33408;52.062;11.722;2023-04-20T08:24:02;101654.22;;;7.92;100.00
47670;BME280;33408;52.062;11.722;2023-04-20T08:26:30;101661.13;;;7.98;100.00
47670;BME280;33408;52.062;11.722;2023-04-20T08:28:57;101654.78;;;9.00;100.00
47670;BME280;33408;52.062;11.722;2023-04-20T08:31:25;101656.31;;;8.52;100.00
47670;BME280;33408;52.062;11.722;2023-04-20T08:33:52;101658.31;;;9.70;100.00
47670;BME280;33408;52.062;11.722;2023-04-20T08:36:19;101659.06;;;8.87;100.00
47670;BME280;33408;52.062;11.722;2023-04-20T08:38:49;101663.38;;;8.99;100.00
47670;BME280;33408;52.062;11.722;2023-04-20T08:41:16;101663.22;;;8.59;100.00
47670;BME280;33408;52.062;11.722;2023-04-20T08:43:42;101665.97;;;8.99;100.00
47670;BME280;33408;52.062;11.722;2023-04-20T08:46:09;101666.72;;;8.69;100.00
47670;BME280;33408;52.062;11.722;2023-04-20T08:48:39;101662.59;;;9.43;100.00
47670;BME280;33408;52.062;11.722;2023-04-20T08:51:07;101656.59;;;9.80;100.00
47670;BME280;33408;52.062;11.722;2023-04-20T08:53:34;101668.69;;;9.82;100.00
47670;BME280;33408;52.062;11.722;2023-04-20T08:56:00;101662.63;;;9.31;100.00
47670;BME280;33408;52.062;11.722;2023-04-20T08:58:29;101666.03;;;9.28;100.00
47670;BME280;33408;52.062;11.722;2023-04-20T09:00:57;101671.13;;;8.96;100.00
47670;BME280;33408;52.062;11.722;2023-04-20T09:03:35;101664.19;;;8.81;100.00
47670;BME280;33408;52.062;11.722;2023-04-20T09:06:04;101660.00;;;9.25;100.00
47670;BME280;33408;52.062;11.722;2023-04-20T09:08:34;101660.78;;;8.94;100.00
47670;BME280;33408;52.062;11.722;2023-04-20T09:11:01;101671.25;;;10.26;100.00
47670;BME280;33408;52.062;11.722;2023-04-20T09:13:28;101674.69;;;10.38;100.00
47670;BME280;33408;52.062;11.722;2023-04-20T09:15:54;101669.53;;;10.37;100.00
47670;BME280;33408;52.062;11.722;2023-04-20T09:18:21;101679.03;;;9.70;100.00
47670;BME280;33408;52.062;11.722;2023-04-20T09:20:49;101676.44;;;9.48;100.00
47670;BME280;33408;52.062;11.722;2023-04-20T09:23:18;101678.16;;;9.59;100.00
47670;BME280;33408;52.062;11.722;2023-04-20T09:25:49;101669.56;;;9.58;100.00
47670;BME280;33408;52.062;11.722;2023-04-20T09:28:16;101672.03;;;10.57;100.00
47670;BME280;33408;52.062;11.722;2023-04-20T09:30:44;101678.06;;;10.57;100.00
47670;BME280;33408;52.062;11.722;2023-04-20T09:33:11;101683.31;;;10.51;100.00
47670;BME280;33408;52.062;11.722;2023-04-20T09:35:39;101671.09;;;10.75;100.00
47670;BME280;33408;52.062;11.722;2023-04-20T09:38:06;101672.09;;;10.21;100.00
47670;BME280;33408;52.062;11.722;2023-04-20T09:40:35;101672.94;;;10.45;100.00
47670;BME280;33408;52.062;11.722;2023-04-20T09:43:12;101674.69;;;10.18;100.00
47670;BME280;33408;52.062;11.722;2023-04-20T09:45:39;101679.03;;;10.09;100.00
47670;BME280;33408;52.062;11.722;2023-04-20T09:48:06;101675.56;;;9.85;100.00
47670;BME280;33408;52.062;11.722;2023-04-20T09:50:35;101676.44;;;9.99;100.00
47670;BME280;33408;52.062;11.722;2023-04-20T09:53:03;101671.22;;;10.33;100.00
47670;BME280;33408;52.062;11.722;2023-04-20T09:55:30;101666.03;;;10.33;100.00
47670;BME280;33408;52.062;11.722;2023-04-20T09:58:01;101665.06;;;10.70;100.00
47670;BME280;33408;52.062;11.722;2023-04-20T10:00:27;101668.66;;;10.21;100.00
47670;BME280;33408;52.062;11.722;2023-04-20T10:02:54;101659.88;;;10.77;100.00
47670;BME280;33408;52.062;11.722;2023-04-20T10:05:31;101664.91;;;11.02;100.00
47670;BME280;33408;52.062;11.722;2023-04-20T10:07:58;101655.66;;;10.41;100.00
47670;BME280;33408;52.062;11.722;2023-04-20T10:10:25;101653.03;;;10.58;100.00
47670;BME280;33408;52.062;11.722;2023-04-20T10:12:53;101654.56;;;10.98;100.00
47670;BME280;33408;52.062;11.722;2023-04-20T10:15:21;101654.66;;;10.82;100.00
47670;BME280;33408;52.062;11.722;2023-04-20T10:17:49;101655.03;;;11.61;100.00
47670;BME280;33408;52.062;11.722;2023-04-20T10:20:22;101651.09;;;11.02;100.00
47670;BME280;33408;52.062;11.722;2023-04-20T10:22:50;101646.88;;;10.85;100.00
47670;BME280;33408;52.062;11.722;2023-04-20T10:25:18;101650.81;;;11.49;100.00
47670;BME280;33408;52.062;11.722;2023-04-20T10:27:52;101653.56;;;11.20;100.00
47670;BME280;33408;52.062;11.722;2023-04-20T10:30:19;101647.34;;;11.43;100.00
47670;BME280;33408;52.062;11.722;2023-04-20T10:32:48;101648.25;;;11.43;100.00
47670;BME280;33408;52.062;11.722;2023-04-20T10:35:14;101646.63;;;11.25;100.00
47670;BME280;33408;52.062;11.722;2023-04-20T10:37:46;101644.47;;;11.78;100.00
47670;BME280;33408;52.062;11.722;2023-04-20T10:40:13;101635.59;;;12.06;98.18
47670;BME280;33408;52.062;11.722;2023-04-20T10:42:41;101636.81;;;11.66;96.14
47670;BME280;33408;52.062;11.722;2023-04-20T10:45:08;101642.25;;;11.34;100.00
47670;BME280;33408;52.062;11.722;2023-04-20T10:47:36;101639.56;;;11.43;100.00
47670;BME280;33408;52.062;11.722;2023-04-20T10:50:07;101634.25;;;11.61;100.00
47670;BME280;33408;52.062;11.722;2023-04-20T10:52:35;101637.78;;;11.51;100.00
47670;BME280;33408;52.062;11.722;2023-04-20T10:55:02;101638.97;;;11.05;100.00
47670;BME280;33408;52.062;11.722;2023-04-20T10:57:29;101634.56;;;11.15;100.00
47670;BME280;33408;52.062;11.722;2023-04-20T10:59:56;101645.13;;;10.84;100.00
47670;BME280;33408;52.062;11.722;2023-04-20T11:02:23;101644.19;;;10.94;100.00
47670;BME280;33408;52.062;11.722;2023-04-20T11:04:49;101648.31;;;11.34;100.00
47670;BME280;33408;52.062;11.722;2023-04-20T11:07:18;101640.66;;;11.12;100.00
47670;BME280;33408;52.062;11.722;2023-04-20T11:09:52;101639.16;;;10.62;100.00
47670;BME280;33408;52.062;11.722;2023-04-20T11:12:19;101629.56;;;10.87;100.00
47670;BME280;33408;52.062;11.722;2023-04-20T11:14:52;101632.78;;;11.23;100.00
47670;BME280;33408;52.062;11.722;2023-04-20T11:17:19;101631.09;;;11.19;99.76
47670;BME280;33408;52.062;11.722;2023-04-20T11:19:46;101633.94;;;10.77;100.00
47670;BME280;33408;52.062;11.722;2023-04-20T11:22:21;101628.06;;;10.18;100.00
47670;BME280;33408;52.062;11.722;2023-04-20T11:24:48;101625.47;;;10.09;100.00
47670;BME280;33408;52.062;11.722;2023-04-20T11:27:19;101630.66;;;10.17;100.00
47670;BME280;33408;52.062;11.722;2023-04-20T11:29:55;101618.59;;;9.97;100.00
47670;BME280;33408;52.062;11.722;2023-04-20T11:32:22;101626.38;;;9.96;100.00
47670;BME280;33408;52.062;11.722;2023-04-20T11:34:57;101622.09;;;9.70;100.00
47670;BME280;33408;52.062;11.722;2023-04-20T11:37:26;101633.28;;;9.67;100.00
47670;BME280;33408;52.062;11.722;2023-04-20T11:40:01;101631.56;;;9.34;100.00
47670;BME280;33408;52.062;11.722;2023-04-20T11:42:30;101627.25;;;9.31;100.00
47670;BME280;33408;52.062;11.722;2023-04-20T11:44:57;101631.56;;;9.29;100.00
47670;BME280;33408;52.062;11.722;2023-04-20T11:47:24;101629.81;;;9.18;100.00
47670;BME280;33408;52.062;11.722;2023-04-20T11:49:51;101638.44;;;9.17;100.00
47670;BME280;33408;52.062;11.722;2023-04-20T11:52:19;101636.69;;;9.12;100.00
47670;BME280;33408;52.062;11.722;2023-04-20T11:54:47;101628.03;;;8.90;100.00
47670;BME280;33408;52.062;11.722;2023-04-20T11:57:14;101633.25;;;9.13;100.00
47670;BME280;33408;52.062;11.722;2023-04-20T11:59:41;101636.56;;;8.72;100.00
47670;BME280;33408;52.062;11.722;2023-04-20T12:02:12;101629.72;;;8.85;100.00
47670;BME280;33408;52.062;11.722;2023-04-20T12:04:39;101631.41;;;8.68;100.00
47670;BME280;33408;52.062;11.722;2023-04-20T12:07:06;101632.22;;;8.59;100.00
47670;BME280;33408;52.062;11.722;2023-04-20T12:09:32;101636.53;;;8.60;100.00
47670;BME280;33408;52.062;11.722;2023-04-20T12:12:03;101628.72;;;8.45;100.00
47670;BME280;33408;52.062;11.722;2023-04-20T12:14:30;101632.03;;;8.27;100.00
47670;BME280;33408;52.062;11.722;2023-04-20T12:16:58;101633.75;;;8.23;100.00
47670;BME280;33408;52.062;11.722;2023-04-20T12:19:25;101632.13;;;8.40;100.00
47670;BME280;33408;52.062;11.722;2023-04-20T12:21:52;101633.69;;;8.17;100.00
47670;BME280;33408;52.062;11.722;2023-04-20T12:24:19;101630.94;;;7.89;100.00
47670;BME280;33408;52.062;11.722;2023-04-20T12:26:45;101631.75;;;7.82;100.00
47670;BME280;33408;52.062;11.722;2023-04-20T12:29:13;101631.72;;;7.79;100.00
47670;BME280;33408;52.062;11.722;2023-04-20T12:31:40;101632.63;;;7.87;100.00
47670;BME280;33408;52.062;11.722;2023-04-20T12:34:06;101623.97;;;7.77;100.00
47670;BME280;33408;52.062;11.722;2023-04-20T12:36:33;101627.38;;;7.73;100.00
47670;BME280;33408;52.062;11.722;2023-04-20T12:39:00;101629.13;;;7.79;100.00